sensor_id;sensor_type;location;lat;lon;timestamp;pressure;altitude;pressure_sealevel;temperature;humidity
6449;BME280;3257;52.298;13.690;2022-10-28T00:01:14;77600.28;;;-144.77;97.84
6449;BME280;3257;52.298;13.690;2022-10-28T00:03:44;77612.19;;;-144.77;97.88
6449;BME280;3257;52.298;13.690;2022-10-28T00:06:16;77612.19;;;-144.77;98.00
6449;BME280;3257;52.298;13.690;2022-10-28T00:08:43;77598.28;;;-144.77;97.89
6449;BME280;3257;52.298;13.690;2022-10-28T00:11:12;77600.28;;;-144.77;97.57
6449;BME280;3257;52.298;13.690;2022-10-28T00:13:39;77600.28;;;-144.77;97.90
6449;BME280;3257;52.298;13.690;2022-10-28T00:16:10;77610.22;;;-144.77;97.89
6449;BME280;3257;52.298;13.690;2022-10-28T00:18:37;77596.28;;;-144.77;97.69
6449;BME280;3257;52.298;13.690;2022-10-28T00:21:07;77588.34;;;-144.77;97.12
6449;BME280;3257;52.298;13.690;2022-10-28T00:23:34;77612.19;;;-144.77;97.30
6449;BME280;3257;52.298;13.690;2022-10-28T00:26:09;77604.25;;;-144.77;97.63
6449;BME280;3257;52.298;13.690;2022-10-28T00:28:40;77608.22;;;-144.77;97.70
6449;BME280;3257;52.298;13.690;2022-10-28T00:31:08;77608.22;;;-144.77;97.79
6449;BME280;3257;52.298;13.690;2022-10-28T00:33:36;77612.19;;;-144.77;97.90
6449;BME280;3257;52.298;13.690;2022-10-28T00:36:07;77616.16;;;-144.77;98.19
6449;BME280;3257;52.298;13.690;2022-10-28T00:38:34;77606.22;;;-144.77;98.42
6449;BME280;3257;52.298;13.690;2022-10-28T00:41:00;77592.31;;;-144.77;98.68
6449;BME280;3257;52.298;13.690;2022-10-28T00:43:42;77588.34;;;-144.77;98.66
6449;BME280;3257;52.298;13.690;2022-10-28T00:48:51;77568.47;;;-144.77;98.39
6449;BME280;3257;52.298;13.690;2022-10-28T00:51:21;77554.56;;;-144.77;98.76
6449;BME280;3257;52.298;13.690;2022-10-28T00:53:49;77536.66;;;-144.77;97.96
6449;BME280;3257;52.298;13.690;2022-10-28T00:56:17;77520.75;;;-144.77;97.42
6449;BME280;3257;52.298;13.690;2022-10-28T00:58:45;77522.75;;;-144.77;97.55
6449;BME280;3257;52.298;13.690;2022-10-28T01:01:13;77522.75;;;-144.77;97.76
6449;BME280;3257;52.298;13.690;2022-10-28T01:03:40;77508.84;;;-144.77;97.86
6449;BME280;3257;52.298;13.690;2022-10-28T01:06:07;77494.91;;;-144.77;97.95
6449;BME280;3257;52.298;13.690;2022-10-28T01:08:33;77500.88;;;-144.77;97.91
6449;BME280;3257;52.298;13.690;2022-10-28T01:11:04;77504.84;;;-144.77;97.89
6449;BME280;3257;52.298;13.690;2022-10-28T01:24:46;77504.84;;;-144.77;97.50
6449;BME280;3257;52.298;13.690;2022-10-28T01:30:16;77496.91;;;-144.77;97.20
6449;BME280;3257;52.298;13.690;2022-10-28T01:33:13;77510.81;;;-144.77;97.31
6449;BME280;3257;52.298;13.690;2022-10-28T01:35:50;77504.84;;;-144.77;97.45
6449;BME280;3257;52.298;13.690;2022-10-28T01:38:21;77518.78;;;-144.77;97.69
6449;BME280;3257;52.298;13.690;2022-10-28T01:41:05;77512.81;;;-144.77;98.02
6449;BME280;3257;52.298;13.690;2022-10-28T01:44:11;77504.84;;;-144.77;97.99
6449;BME280;3257;52.298;13.690;2022-10-28T01:47:07;77496.91;;;-144.77;97.67
6449;BME280;3257;52.298;13.690;2022-10-28T01:49:54;77486.97;;;-144.77;97.02
6449;BME280;3257;52.298;13.690;2022-10-28T01:52:25;77465.09;;;-144.77;96.49
6449;BME280;3257;52.298;13.690;2022-10-28T01:54:58;77496.91;;;-144.77;96.49
6449;BME280;3257;52.298;13.690;2022-10-28T01:57:29;77500.88;;;-144.77;96.53
6449;BME280;3257;52.298;13.690;2022-10-28T01:59:56;77492.94;;;-144.77;96.52
6449;BME280;3257;52.298;13.690;2022-10-28T02:02:23;77500.88;;;-144.77;96.62
6449;BME280;3257;52.298;13.690;2022-10-28T02:04:50;77498.91;;;-144.77;96.40
6449;BME280;3257;52.298;13.690;2022-10-28T02:07:16;77502.88;;;-144.77;96.43
6449;BME280;3257;52.298;13.690;2022-10-28T02:10:11;77516.78;;;-144.77;96.64
6449;BME280;3257;52.298;13.690;2022-10-28T02:12:43;77516.78;;;-144.77;96.38
6449;BME280;3257;52.298;13.690;2022-10-28T02:20:52;77528.72;;;-144.77;95.77
6449;BME280;3257;52.298;13.690;2022-10-28T02:23:27;77544.63;;;-144.77;96.07
6449;BME280;3257;52.298;13.690;2022-10-28T02:29:00;77564.50;;;-144.77;96.34
6449;BME280;3257;52.298;13.690;2022-10-28T02:31:31;77562.50;;;-144.77;97.02
6449;BME280;3257;52.298;13.690;2022-10-28T02:34:04;77556.53;;;-144.77;96.55
6449;BME280;3257;52.298;13.690;2022-10-28T02:36:35;77554.56;;;-144.77;96.84
6449;BME280;3257;52.298;13.690;2022-10-28T02:39:05;77552.56;;;-144.77;96.42
6449;BME280;3257;52.298;13.690;2022-10-28T02:41:41;77568.47;;;-144.77;96.94
6449;BME280;3257;52.298;13.690;2022-10-28T02:44:17;77576.41;;;-144.77;96.82
6449;BME280;3257;52.298;13.690;2022-10-28T02:46:46;77560.50;;;-144.77;97.15
6449;BME280;3257;52.298;13.690;2022-10-28T02:49:14;77574.44;;;-144.77;97.08
6449;BME280;3257;52.298;13.690;2022-10-28T02:51:47;77564.50;;;-144.77;97.26
6449;BME280;3257;52.298;13.690;2022-10-28T02:57:01;77572.44;;;-144.77;97.61
6449;BME280;3257;52.298;13.690;2022-10-28T02:59:29;77568.47;;;-144.77;97.76
6449;BME280;3257;52.298;13.690;2022-10-28T03:01:55;77550.56;;;-144.77;97.87
6449;BME280;3257;52.298;13.690;2022-10-28T03:04:22;77556.53;;;-144.77;97.86
6449;BME280;3257;52.298;13.690;2022-10-28T03:06:49;77564.50;;;-144.77;97.91
6449;BME280;3257;52.298;13.690;2022-10-28T03:09:15;77560.50;;;-144.77;98.16
6449;BME280;3257;52.298;13.690;2022-10-28T03:11:42;77568.47;;;-144.77;98.06
6449;BME280;3257;52.298;13.690;2022-10-28T03:14:08;77554.56;;;-144.77;98.24
6449;BME280;3257;52.298;13.690;2022-10-28T03:16:39;77552.56;;;-144.77;98.34
6449;BME280;3257;52.298;13.690;2022-10-28T03:19:06;77562.50;;;-144.77;97.98
6449;BME280;3257;52.298;13.690;2022-10-28T03:21:32;77556.53;;;-144.77;98.12
6449;BME280;3257;52.298;13.690;2022-10-28T03:23:59;77562.50;;;-144.77;98.19
6449;BME280;3257;52.298;13.690;2022-10-28T03:26:25;77560.50;;;-144.77;97.82
6449;BME280;3257;52.298;13.690;2022-10-28T03:28:52;77554.56;;;-144.77;97.89
6449;BME280;3257;52.298;13.690;2022-10-28T03:31:18;77562.50;;;-144.77;97.62
6449;BME280;3257;52.298;13.690;2022-10-28T03:33:45;77562.50;;;-144.77;97.90
6449;BME280;3257;52.298;13.690;2022-10-28T03:36:11;77560.50;;;-144.77;98.07
6449;BME280;3257;52.298;13.690;2022-10-28T03:38:38;77560.50;;;-144.77;98.19
6449;BME280;3257;52.298;13.690;2022-10-28T03:41:04;77562.50;;;-144.77;98.22
6449;BME280;3257;52.298;13.690;2022-10-28T03:43:30;77574.44;;;-144.77;98.19
6449;BME280;3257;52.298;13.690;2022-10-28T03:45:57;77556.53;;;-144.77;98.44
6449;BME280;3257;52.298;13.690;2022-10-28T03:48:23;77556.53;;;-144.77;98.23
6449;BME280;3257;52.298;13.690;2022-10-28T03:50:54;77554.56;;;-144.77;97.90
6449;BME280;3257;52.298;13.690;2022-10-28T03:53:21;77562.50;;;-144.77;98.04
6449;BME280;3257;52.298;13.690;2022-10-28T03:55:53;77568.47;;;-144.77;97.97
6449;BME280;3257;52.298;13.690;2022-10-28T03:58:21;77568.47;;;-144.77;97.94
6449;BME280;3257;52.298;13.690;2022-10-28T04:00:51;77558.53;;;-144.77;97.50
6449;BME280;3257;52.298;13.690;2022-10-28T04:03:20;77552.56;;;-144.77;97.58
6449;BME280;3257;52.298;13.690;2022-10-28T04:05:47;77536.66;;;-144.77;97.40
6449;BME280;3257;52.298;13.690;2022-10-28T04:08:14;77556.53;;;-144.77;97.71
6449;BME280;3257;52.298;13.690;2022-10-28T04:10:41;77568.47;;;-144.77;97.58
6449;BME280;3257;52.298;13.690;2022-10-28T04:13:13;77568.47;;;-144.77;98.02
6449;BME280;3257;52.298;13.690;2022-10-28T04:15:39;77566.47;;;-144.77;97.87
6449;BME280;3257;52.298;13.690;2022-10-28T04:18:06;77572.44;;;-144.77;97.93
6449;BME280;3257;52.298;13.690;2022-10-28T04:20:33;77564.50;;;-144.77;97.49
6449;BME280;3257;52.298;13.690;2022-10-28T04:22:59;77576.41;;;-144.77;97.21
6449;BME280;3257;52.298;13.690;2022-10-28T04:25:26;77532.69;;;-144.77;97.06
6449;BME280;3257;52.298;13.690;2022-10-28T04:27:53;77572.44;;;-144.77;96.82
6449;BME280;3257;52.298;13.690;2022-10-28T04:30:21;77580.41;;;-144.77;97.02
6449;BME280;3257;52.298;13.690;2022-10-28T04:32:47;77598.28;;;-144.77;97.33
6449;BME280;3257;52.298;13.690;2022-10-28T04:35:14;77600.28;;;-144.77;97.54
6449;BME280;3257;52.298;13.690;2022-10-28T04:37:40;77608.22;;;-144.77;97.53
6449;BME280;3257;52.298;13.690;2022-10-28T04:40:08;77604.25;;;-144.77;97.60
6449;BME280;3257;52.298;13.690;2022-10-28T04:42:34;77620.16;;;-144.77;97.82
6449;BME280;3257;52.298;13.690;2022-10-28T04:45:01;77616.16;;;-144.77;97.84
6449;BME280;3257;52.298;13.690;2022-10-28T04:47:27;77622.13;;;-144.77;98.02
6449;BME280;3257;52.298;13.690;2022-10-28T04:49:54;77620.16;;;-144.77;97.89
6449;BME280;3257;52.298;13.690;2022-10-28T04:52:20;77608.22;;;-144.77;98.38
6449;BME280;3257;52.298;13.690;2022-10-28T04:54:47;77626.13;;;-144.77;98.31
6449;BME280;3257;52.298;13.690;2022-10-28T04:57:13;77632.06;;;-144.77;98.37
6449;BME280;3257;52.298;13.690;2022-10-28T04:59:40;77638.03;;;-144.77;98.29
6449;BME280;3257;52.298;13.690;2022-10-28T05:02:06;77622.13;;;-144.77;98.67
6449;BME280;3257;52.298;13.690;2022-10-28T05:04:33;77620.16;;;-144.77;98.57
6449;BME280;3257;52.298;13.690;2022-10-28T05:06:59;77628.09;;;-144.77;98.77
6449;BME280;3257;52.298;13.690;2022-10-28T05:09:26;77626.13;;;-144.77;98.39
6449;BME280;3257;52.298;13.690;2022-10-28T05:11:52;77628.09;;;-144.77;98.60
6449;BME280;3257;52.298;13.690;2022-10-28T05:14:19;77622.13;;;-144.77;98.78
6449;BME280;3257;52.298;13.690;2022-10-28T05:16:46;77610.22;;;-144.77;98.39
6449;BME280;3257;52.298;13.690;2022-10-28T05:19:12;77586.34;;;-144.77;98.07
6449;BME280;3257;52.298;13.690;2022-10-28T05:21:39;77584.38;;;-144.77;97.26
6449;BME280;3257;52.298;13.690;2022-10-28T05:24:05;77590.34;;;-144.77;96.62
6449;BME280;3257;52.298;13.690;2022-10-28T05:26:32;77590.34;;;-144.77;96.98
6449;BME280;3257;52.298;13.690;2022-10-28T05:28:58;77580.41;;;-144.77;96.98
6449;BME280;3257;52.298;13.690;2022-10-28T05:31:25;77580.41;;;-144.77;96.56
6449;BME280;3257;52.298;13.690;2022-10-28T05:33:51;77608.22;;;-144.77;96.17
6449;BME280;3257;52.298;13.690;2022-10-28T05:36:18;77618.16;;;-144.77;96.59
6449;BME280;3257;52.298;13.690;2022-10-28T05:38:44;77624.13;;;-144.77;97.18
6449;BME280;3257;52.298;13.690;2022-10-28T05:41:11;77640.03;;;-144.77;97.43
6449;BME280;3257;52.298;13.690;2022-10-28T05:43:38;77638.03;;;-144.77;97.71
6449;BME280;3257;52.298;13.690;2022-10-28T05:46:04;77642.00;;;-144.77;97.74
6449;BME280;3257;52.298;13.690;2022-10-28T05:48:31;77630.09;;;-144.77;98.17
6449;BME280;3257;52.298;13.690;2022-10-28T05:50:57;77632.06;;;-144.77;98.21
6449;BME280;3257;52.298;13.690;2022-10-28T05:53:24;77630.09;;;-144.77;98.54
6449;BME280;3257;52.298;13.690;2022-10-28T05:55:50;77620.16;;;-144.77;98.71
6449;BME280;3257;52.298;13.690;2022-10-28T05:58:17;77624.13;;;-144.77;98.84
6449;BME280;3257;52.298;13.690;2022-10-28T06:00:43;77622.13;;;-144.77;98.77
6449;BME280;3257;52.298;13.690;2022-10-28T06:03:11;77600.28;;;-144.77;98.72
6449;BME280;3257;52.298;13.690;2022-10-28T06:05:40;77608.22;;;-144.77;98.94
6449;BME280;3257;52.298;13.690;2022-10-28T06:08:07;77626.13;;;-144.77;98.83
6449;BME280;3257;52.298;13.690;2022-10-28T06:10:34;77624.13;;;-144.77;98.94
6449;BME280;3257;52.298;13.690;2022-10-28T06:13:00;77620.16;;;-144.77;99.01
6449;BME280;3257;52.298;13.690;2022-10-28T06:15:27;77612.19;;;-144.77;99.06
6449;BME280;3257;52.298;13.690;2022-10-28T06:17:53;77594.31;;;-144.77;99.15
6449;BME280;3257;52.298;13.690;2022-10-28T06:20:20;77602.25;;;-144.77;99.12
6449;BME280;3257;52.298;13.690;2022-10-28T06:22:49;77582.38;;;-144.77;99.09
6449;BME280;3257;52.298;13.690;2022-10-28T06:25:18;77582.38;;;-144.77;98.77
6449;BME280;3257;52.298;13.690;2022-10-28T06:27:45;77578.41;;;-144.77;98.82
6449;BME280;3257;52.298;13.690;2022-10-28T06:30:12;77558.53;;;-144.77;98.34
6449;BME280;3257;52.298;13.690;2022-10-28T06:32:38;77582.38;;;-144.77;98.17
6449;BME280;3257;52.298;13.690;2022-10-28T06:35:05;77598.28;;;-144.77;98.64
6449;BME280;3257;52.298;13.690;2022-10-28T06:37:31;77592.31;;;-144.77;98.71
6449;BME280;3257;52.298;13.690;2022-10-28T06:39:58;77590.34;;;-144.77;98.74
6449;BME280;3257;52.298;13.690;2022-10-28T06:42:25;77564.50;;;-144.77;98.82
6449;BME280;3257;52.298;13.690;2022-10-28T06:44:52;77558.53;;;-144.77;99.08
6449;BME280;3257;52.298;13.690;2022-10-28T06:47:20;77556.53;;;-144.77;99.17
6449;BME280;3257;52.298;13.690;2022-10-28T06:49:47;77548.59;;;-144.77;99.09
6449;BME280;3257;52.298;13.690;2022-10-28T06:52:13;77550.56;;;-144.77;99.13
6449;BME280;3257;52.298;13.690;2022-10-28T06:54:40;77548.59;;;-144.77;99.33
6449;BME280;3257;52.298;13.690;2022-10-28T06:57:06;77530.69;;;-144.77;99.46
6449;BME280;3257;52.298;13.690;2022-10-28T06:59:32;77520.75;;;-144.77;99.36
6449;BME280;3257;52.298;13.690;2022-10-28T07:01:59;77508.84;;;-144.77;99.64
6449;BME280;3257;52.298;13.690;2022-10-28T07:04:26;77496.91;;;-144.77;98.87
6449;BME280;3257;52.298;13.690;2022-10-28T07:06:56;77500.88;;;-144.77;98.91
6449;BME280;3257;52.298;13.690;2022-10-28T07:09:23;77475.03;;;-144.77;98.77
6449;BME280;3257;52.298;13.690;2022-10-28T07:11:49;77483.00;;;-144.77;98.73
6449;BME280;3257;52.298;13.690;2022-10-28T07:14:20;77463.13;;;-144.77;98.54
6449;BME280;3257;52.298;13.690;2022-10-28T07:16:47;77465.09;;;-144.77;98.40
6449;BME280;3257;52.298;13.690;2022-10-28T07:19:13;77467.09;;;-144.77;98.22
6449;BME280;3257;52.298;13.690;2022-10-28T07:21:46;77465.09;;;-144.77;98.22
6449;BME280;3257;52.298;13.690;2022-10-28T07:24:13;77471.06;;;-144.77;98.38
6449;BME280;3257;52.298;13.690;2022-10-28T07:26:39;77457.16;;;-144.77;98.49
6449;BME280;3257;52.298;13.690;2022-10-28T07:29:06;77447.22;;;-144.77;98.62
6449;BME280;3257;52.298;13.690;2022-10-28T07:31:32;77437.28;;;-144.77;98.39
6449;BME280;3257;52.298;13.690;2022-10-28T07:33:59;77433.31;;;-144.77;98.24
6449;BME280;3257;52.298;13.690;2022-10-28T07:36:25;77429.31;;;-144.77;98.35
6449;BME280;3257;52.298;13.690;2022-10-28T07:38:52;77417.41;;;-144.77;98.42
6449;BME280;3257;52.298;13.690;2022-10-28T07:41:20;77403.50;;;-144.77;98.30
6449;BME280;3257;52.298;13.690;2022-10-28T07:43:47;77393.56;;;-144.77;98.16
6449;BME280;3257;52.298;13.690;2022-10-28T07:46:15;77349.81;;;-144.77;97.87
6449;BME280;3257;52.298;13.690;2022-10-28T07:48:42;77339.88;;;-144.77;97.13
6449;BME280;3257;52.298;13.690;2022-10-28T07:51:10;77339.88;;;-144.77;97.17
6449;BME280;3257;52.298;13.690;2022-10-28T07:53:38;77329.94;;;-144.77;97.58
6449;BME280;3257;52.298;13.690;2022-10-28T07:56:07;77318.03;;;-144.77;96.78
6449;BME280;3257;52.298;13.690;2022-10-28T07:58:35;77304.09;;;-144.77;96.72
6449;BME280;3257;52.298;13.690;2022-10-28T08:01:04;77288.22;;;-144.77;96.64
6449;BME280;3257;52.298;13.690;2022-10-28T08:03:31;77270.31;;;-144.77;96.54
6449;BME280;3257;52.298;13.690;2022-10-28T08:06:10;77244.47;;;-144.77;95.96
6449;BME280;3257;52.298;13.690;2022-10-28T08:08:37;77226.59;;;-144.77;95.69
6449;BME280;3257;52.298;13.690;2022-10-28T08:11:15;77198.75;;;-144.77;95.37
6449;BME280;3257;52.298;13.690;2022-10-28T08:13:42;77192.81;;;-144.77;94.52
6449;BME280;3257;52.298;13.690;2022-10-28T08:16:08;77176.91;;;-144.77;94.22
6449;BME280;3257;52.298;13.690;2022-10-28T08:18:36;77163.00;;;-144.77;93.71
6449;BME280;3257;52.298;13.690;2022-10-28T08:21:04;77163.00;;;-144.77;93.40
6449;BME280;3257;52.298;13.690;2022-10-28T08:23:31;77161.00;;;-144.77;93.44
6449;BME280;3257;52.298;13.690;2022-10-28T08:25:57;77166.97;;;-144.77;92.87
6449;BME280;3257;52.298;13.690;2022-10-28T08:28:24;77168.94;;;-144.77;92.99
6449;BME280;3257;52.298;13.690;2022-10-28T08:30:50;77168.94;;;-144.77;93.06
6449;BME280;3257;52.298;13.690;2022-10-28T08:33:34;77157.03;;;-144.77;92.94
6449;BME280;3257;52.298;13.690;2022-10-28T08:36:01;77147.09;;;-144.77;92.87
6449;BME280;3257;52.298;13.690;2022-10-28T08:38:27;77139.13;;;-144.77;92.72
6449;BME280;3257;52.298;13.690;2022-10-28T08:41:04;77147.09;;;-144.77;92.45
6449;BME280;3257;52.298;13.690;2022-10-28T08:43:55;77135.16;;;-144.77;92.19
6449;BME280;3257;52.298;13.690;2022-10-28T08:46:45;77113.31;;;-144.77;91.40
6449;BME280;3257;52.298;13.690;2022-10-28T08:49:17;77093.44;;;-144.77;91.32
6449;BME280;3257;52.298;13.690;2022-10-28T08:51:50;77089.44;;;-144.77;90.82
6449;BME280;3257;52.298;13.690;2022-10-28T08:54:26;77077.53;;;-144.77;90.31
6449;BME280;3257;52.298;13.690;2022-10-28T08:56:58;77069.56;;;-144.77;90.21
6449;BME280;3257;52.298;13.690;2022-10-28T08:59:30;77053.69;;;-144.77;89.59
6449;BME280;3257;52.298;13.690;2022-10-28T09:04:40;77011.94;;;-144.77;87.57
6449;BME280;3257;52.298;13.690;2022-10-28T09:07:17;77004.00;;;-144.77;88.14
6449;BME280;3257;52.298;13.690;2022-10-28T09:09:46;76976.16;;;-144.77;87.74
6449;BME280;3257;52.298;13.690;2022-10-28T09:31:38;76860.91;;;-144.77;83.22
6449;BME280;3257;52.298;13.690;2022-10-28T09:36:38;76843.00;;;-144.77;82.37
6449;BME280;3257;52.298;13.690;2022-10-28T09:39:28;76831.09;;;-144.77;81.59
6449;BME280;3257;52.298;13.690;2022-10-28T09:41:58;76817.19;;;-144.77;81.47
6449;BME280;3257;52.298;13.690;2022-10-28T09:44:46;76817.19;;;-144.77;81.60
6449;BME280;3257;52.298;13.690;2022-10-28T09:47:19;76795.31;;;-144.77;81.27
6449;BME280;3257;52.298;13.690;2022-10-28T09:49:48;76779.41;;;-144.77;80.86
6449;BME280;3257;52.298;13.690;2022-10-28T09:52:20;76767.50;;;-144.77;80.97
6449;BME280;3257;52.298;13.690;2022-10-28T09:54:50;76753.59;;;-144.77;79.87
6449;BME280;3257;52.298;13.690;2022-10-28T09:57:19;76743.66;;;-144.77;79.32
6449;BME280;3257;52.298;13.690;2022-10-28T09:59:46;76729.75;;;-144.77;79.00
6449;BME280;3257;52.298;13.690;2022-10-28T10:02:25;76715.81;;;-144.77;77.99
6449;BME280;3257;52.298;13.690;2022-10-28T10:04:54;76697.94;;;-144.77;77.27
6449;BME280;3257;52.298;13.690;2022-10-28T10:07:35;76690.00;;;-144.77;77.00
6449;BME280;3257;52.298;13.690;2022-10-28T10:10:10;76682.03;;;-144.77;76.89
6449;BME280;3257;52.298;13.690;2022-10-28T10:12:38;76674.09;;;-144.77;76.69
6449;BME280;3257;52.298;13.690;2022-10-28T10:15:06;76684.03;;;-144.77;77.01
6449;BME280;3257;52.298;13.690;2022-10-28T10:17:43;76666.16;;;-144.77;76.42
6449;BME280;3257;52.298;13.690;2022-10-28T10:20:11;76644.28;;;-144.77;75.87
6449;BME280;3257;52.298;13.690;2022-10-28T10:22:42;76622.44;;;-144.77;75.85
6449;BME280;3257;52.298;13.690;2022-10-28T10:25:29;76592.63;;;-144.77;75.48
6449;BME280;3257;52.298;13.690;2022-10-28T10:28:02;76558.84;;;-144.77;74.18
6449;BME280;3257;52.298;13.690;2022-10-28T10:30:53;76535.00;;;-144.77;73.77
6449;BME280;3257;52.298;13.690;2022-10-28T10:33:29;76535.00;;;-144.77;73.22
6449;BME280;3257;52.298;13.690;2022-10-28T10:38:36;76527.03;;;-144.77;73.34
6449;BME280;3257;52.298;13.690;2022-10-28T10:41:04;76523.06;;;-144.77;72.92
6449;BME280;3257;52.298;13.690;2022-10-28T10:43:32;76507.16;;;-144.77;72.44
6449;BME280;3257;52.298;13.690;2022-10-28T10:46:01;76509.16;;;-144.77;71.92
6449;BME280;3257;52.298;13.690;2022-10-28T10:48:30;76489.28;;;-144.77;71.12
6449;BME280;3257;52.298;13.690;2022-10-28T10:53:33;76471.41;;;-144.77;69.52
6449;BME280;3257;52.298;13.690;2022-10-28T10:56:05;76461.47;;;-144.77;69.02
6449;BME280;3257;52.298;13.690;2022-10-28T10:58:36;76463.44;;;-144.77;68.49
6449;BME280;3257;52.298;13.690;2022-10-28T11:01:05;76471.41;;;-144.77;69.37
6449;BME280;3257;52.298;13.690;2022-10-28T11:03:33;76469.41;;;-144.77;69.07
6449;BME280;3257;52.298;13.690;2022-10-28T11:06:04;76457.50;;;-144.77;69.06
6449;BME280;3257;52.298;13.690;2022-10-28T11:08:54;76443.59;;;-144.77;69.44
6449;BME280;3257;52.298;13.690;2022-10-28T11:11:33;76439.59;;;-144.77;70.39
6449;BME280;3257;52.298;13.690;2022-10-28T11:14:22;76421.72;;;-144.77;69.35
6449;BME280;3257;52.298;13.690;2022-10-28T11:17:00;76409.81;;;-144.77;70.23
6449;BME280;3257;52.298;13.690;2022-10-28T11:19:33;76403.84;;;-144.77;69.40
6449;BME280;3257;52.298;13.690;2022-10-28T11:22:03;76405.81;;;-144.77;68.69
6449;BME280;3257;52.298;13.690;2022-10-28T11:27:33;76376.03;;;-144.77;68.02
6449;BME280;3257;52.298;13.690;2022-10-28T11:30:12;76364.09;;;-144.77;67.97
6449;BME280;3257;52.298;13.690;2022-10-28T11:38:20;76332.31;;;-144.77;66.38
6449;BME280;3257;52.298;13.690;2022-10-28T11:41:07;76328.34;;;-144.77;66.44
6449;BME280;3257;52.298;13.690;2022-10-28T11:43:49;76334.28;;;-144.77;66.06
6449;BME280;3257;52.298;13.690;2022-10-28T11:46:46;76320.38;;;-144.77;65.73
6449;BME280;3257;52.298;13.690;2022-10-28T12:03:08;76296.53;;;-144.77;64.07
6449;BME280;3257;52.298;13.690;2022-10-28T12:08:58;76262.75;;;-144.77;64.77
6449;BME280;3257;52.298;13.690;2022-10-28T12:11:57;76256.78;;;-144.77;62.49
6449;BME280;3257;52.298;13.690;2022-10-28T12:17:06;76268.72;;;-144.77;61.43
6449;BME280;3257;52.298;13.690;2022-10-28T12:19:44;76264.75;;;-144.77;62.32
6449;BME280;3257;52.298;13.690;2022-10-28T12:24:48;76254.81;;;-144.77;63.16
6449;BME280;3257;52.298;13.690;2022-10-28T12:29:50;76250.84;;;-144.77;62.59
6449;BME280;3257;52.298;13.690;2022-10-28T12:32:27;76258.78;;;-144.77;64.38
6449;BME280;3257;52.298;13.690;2022-10-28T12:35:02;76246.88;;;-144.77;64.38
6449;BME280;3257;52.298;13.690;2022-10-28T12:37:40;76240.91;;;-144.77;64.14
6449;BME280;3257;52.298;13.690;2022-10-28T12:40:26;76234.94;;;-144.77;63.75
6449;BME280;3257;52.298;13.690;2022-10-28T12:43:06;76219.03;;;-144.77;64.15
6449;BME280;3257;52.298;13.690;2022-10-28T12:45:37;76189.25;;;-144.77;64.02
6449;BME280;3257;52.298;13.690;2022-10-28T12:51:13;76177.31;;;-144.77;63.77
6449;BME280;3257;52.298;13.690;2022-10-28T12:53:50;76159.44;;;-144.77;64.22
6449;BME280;3257;52.298;13.690;2022-10-28T12:56:32;76165.41;;;-144.77;64.83
6449;BME280;3257;52.298;13.690;2022-10-28T12:59:13;76171.34;;;-144.77;64.90
6449;BME280;3257;52.298;13.690;2022-10-28T13:01:43;76197.19;;;-144.77;64.87
6449;BME280;3257;52.298;13.690;2022-10-28T13:04:11;76207.13;;;-144.77;65.35
6449;BME280;3257;52.298;13.690;2022-10-28T13:07:02;76221.03;;;-144.77;64.54
6449;BME280;3257;52.298;13.690;2022-10-28T13:20:27;76248.84;;;-144.77;66.73
6449;BME280;3257;52.298;13.690;2022-10-28T13:23:09;76256.78;;;-144.77;67.00
6449;BME280;3257;52.298;13.690;2022-10-28T13:28:33;76268.72;;;-144.77;67.60
6449;BME280;3257;52.298;13.690;2022-10-28T13:31:03;76272.69;;;-144.77;67.78
6449;BME280;3257;52.298;13.690;2022-10-28T13:33:33;76270.72;;;-144.77;67.77
6449;BME280;3257;52.298;13.690;2022-10-28T13:36:08;76272.69;;;-144.77;67.82
6449;BME280;3257;52.298;13.690;2022-10-28T13:38:36;76270.72;;;-144.77;68.09
6449;BME280;3257;52.298;13.690;2022-10-28T13:49:26;76284.63;;;-144.77;68.54
6449;BME280;3257;52.298;13.690;2022-10-28T13:52:22;76262.75;;;-144.77;68.84
6449;BME280;3257;52.298;13.690;2022-10-28T13:57:30;76272.69;;;-144.77;69.04
6449;BME280;3257;52.298;13.690;2022-10-28T14:00:00;76276.66;;;-144.77;68.98
6449;BME280;3257;52.298;13.690;2022-10-28T14:02:45;76272.69;;;-144.77;69.33
6449;BME280;3257;52.298;13.690;2022-10-28T14:05:15;76272.69;;;-144.77;69.43
6449;BME280;3257;52.298;13.690;2022-10-28T14:07:56;76280.66;;;-144.77;70.01
6449;BME280;3257;52.298;13.690;2022-10-28T14:10:26;76284.63;;;-144.77;70.18
6449;BME280;3257;52.298;13.690;2022-10-28T14:12:58;76292.56;;;-144.77;69.98
6449;BME280;3257;52.298;13.690;2022-10-28T14:15:29;76300.50;;;-144.77;69.87
6449;BME280;3257;52.298;13.690;2022-10-28T14:21:02;76324.34;;;-144.77;70.40
6449;BME280;3257;52.298;13.690;2022-10-28T14:26:02;76328.34;;;-144.77;70.59
6449;BME280;3257;52.298;13.690;2022-10-28T14:44:02;76348.19;;;-144.77;72.01
6449;BME280;3257;52.298;13.690;2022-10-28T14:49:29;76366.09;;;-144.77;72.72
6449;BME280;3257;52.298;13.690;2022-10-28T14:52:03;76372.03;;;-144.77;72.86
6449;BME280;3257;52.298;13.690;2022-10-28T14:54:41;76372.03;;;-144.77;73.01
6449;BME280;3257;52.298;13.690;2022-10-28T14:57:09;76383.97;;;-144.77;72.99
6449;BME280;3257;52.298;13.690;2022-10-28T14:59:41;76385.97;;;-144.77;73.29
6449;BME280;3257;52.298;13.690;2022-10-28T15:02:12;76397.88;;;-144.77;73.77
6449;BME280;3257;52.298;13.690;2022-10-28T15:04:42;76403.84;;;-144.77;73.97
6449;BME280;3257;52.298;13.690;2022-10-28T15:07:18;76417.75;;;-144.77;74.35
6449;BME280;3257;52.298;13.690;2022-10-28T15:09:47;76423.72;;;-144.77;74.52
6449;BME280;3257;52.298;13.690;2022-10-28T15:12:20;76431.66;;;-144.77;75.10
6449;BME280;3257;52.298;13.690;2022-10-28T15:14:55;76447.56;;;-144.77;75.40
6449;BME280;3257;52.298;13.690;2022-10-28T15:17:27;76455.50;;;-144.77;75.57
6449;BME280;3257;52.298;13.690;2022-10-28T15:19:56;76467.44;;;-144.77;75.97
6449;BME280;3257;52.298;13.690;2022-10-28T15:25:12;76491.28;;;-144.77;76.98
6449;BME280;3257;52.298;13.690;2022-10-28T15:27:40;76499.22;;;-144.77;77.52
6449;BME280;3257;52.298;13.690;2022-10-28T15:30:16;76519.09;;;-144.77;77.88
6449;BME280;3257;52.298;13.690;2022-10-28T15:32:44;76531.00;;;-144.77;78.59
6449;BME280;3257;52.298;13.690;2022-10-28T15:37:59;76548.91;;;-144.77;79.49